sensor_id;sensor_type;location;lat;lon;timestamp;P1;durP1;ratioP1;P2;durP2;ratioP2
9328;SDS011;4703;48.748;19.142;2023-07-29T00:01:57;5.03;;;4.63;;
9328;SDS011;4703;48.748;19.142;2023-07-29T00:04:24;4.53;;;4.13;;
9328;SDS011;4703;48.748;19.142;2023-07-29T00:06:51;5.80;;;5.30;;
9328;SDS011;4703;48.748;19.142;2023-07-29T00:09:18;4.33;;;4.03;;
9328;SDS011;4703;48.748;19.142;2023-07-29T00:11:45;5.17;;;4.70;;
9328;SDS011;4703;48.748;19.142;2023-07-29T00:14:12;4.47;;;4.07;;
9328;SDS011;4703;48.748;19.142;2023-07-29T00:16:39;4.77;;;4.40;;
9328;SDS011;4703;48.748;19.142;2023-07-29T00:19:06;5.47;;;4.93;;
9328;SDS011;4703;48.748;19.142;2023-07-29T00:21:33;4.97;;;4.50;;
9328;SDS011;4703;48.748;19.142;2023-07-29T00:24:01;4.80;;;4.40;;
9328;SDS011;4703;48.748;19.142;2023-07-29T00:26:28;5.60;;;4.70;;
9328;SDS011;4703;48.748;19.142;2023-07-29T00:28:58;4.93;;;4.57;;
9328;SDS011;4703;48.748;19.142;2023-07-29T00:31:25;5.40;;;4.90;;
9328;SDS011;4703;48.748;19.142;2023-07-29T00:33:52;5.23;;;4.73;;
9328;SDS011;4703;48.748;19.142;2023-07-29T00:36:19;6.33;;;5.00;;
9328;SDS011;4703;48.748;19.142;2023-07-29T00:38:46;5.37;;;4.80;;
9328;SDS011;4703;48.748;19.142;2023-07-29T00:41:13;4.70;;;4.30;;
9328;SDS011;4703;48.748;19.142;2023-07-29T00:43:41;4.90;;;4.43;;
9328;SDS011;4703;48.748;19.142;2023-07-29T00:46:08;4.23;;;3.90;;
9328;SDS011;4703;48.748;19.142;2023-07-29T00:48:39;5.67;;;5.17;;
9328;SDS011;4703;48.748;19.142;2023-07-29T00:51:06;6.20;;;5.20;;
9328;SDS011;4703;48.748;19.142;2023-07-29T00:53:33;4.80;;;4.40;;
9328;SDS011;4703;48.748;19.142;2023-07-29T00:56:00;5.37;;;4.87;;
9328;SDS011;4703;48.748;19.142;2023-07-29T00:58:27;5.23;;;4.73;;
9328;SDS011;4703;48.748;19.142;2023-07-29T01:00:54;4.93;;;4.53;;
9328;SDS011;4703;48.748;19.142;2023-07-29T01:03:22;4.93;;;4.53;;
9328;SDS011;4703;48.748;19.142;2023-07-29T01:06:01;5.43;;;4.80;;
9328;SDS011;4703;48.748;19.142;2023-07-29T01:11:59;5.80;;;4.80;;
9328;SDS011;4703;48.748;19.142;2023-07-29T01:15:20;5.60;;;5.10;;
9328;SDS011;4703;48.748;19.142;2023-07-29T01:17:42;5.57;;;4.53;;
9328;SDS011;4703;48.748;19.142;2023-07-29T01:20:20;4.90;;;4.50;;
9328;SDS011;4703;48.748;19.142;2023-07-29T01:22:51;5.40;;;5.00;;
9328;SDS011;4703;48.748;19.142;2023-07-29T01:25:18;4.67;;;4.13;;
9328;SDS011;4703;48.748;19.142;2023-07-29T01:27:46;9.80;;;4.20;;
9328;SDS011;4703;48.748;19.142;2023-07-29T01:30:18;4.90;;;4.60;;
9328;SDS011;4703;48.748;19.142;2023-07-29T01:33:07;4.67;;;4.37;;
9328;SDS011;4703;48.748;19.142;2023-07-29T01:38:48;4.97;;;4.53;;
9328;SDS011;4703;48.748;19.142;2023-07-29T01:41:17;7.87;;;4.70;;
9328;SDS011;4703;48.748;19.142;2023-07-29T01:43:45;5.40;;;4.37;;
9328;SDS011;4703;48.748;19.142;2023-07-29T01:46:14;4.50;;;4.20;;
9328;SDS011;4703;48.748;19.142;2023-07-29T01:48:41;5.00;;;4.20;;
9328;SDS011;4703;48.748;19.142;2023-07-29T01:51:10;5.73;;;5.23;;
9328;SDS011;4703;48.748;19.142;2023-07-29T01:53:38;4.83;;;4.40;;
9328;SDS011;4703;48.748;19.142;2023-07-29T01:56:05;4.60;;;4.20;;
9328;SDS011;4703;48.748;19.142;2023-07-29T01:58:32;5.30;;;4.73;;
9328;SDS011;4703;48.748;19.142;2023-07-29T02:00:59;5.17;;;4.77;;
9328;SDS011;4703;48.748;19.142;2023-07-29T02:03:26;4.67;;;3.97;;
9328;SDS011;4703;48.748;19.142;2023-07-29T02:05:54;5.40;;;4.60;;
9328;SDS011;4703;48.748;19.142;2023-07-29T02:08:21;5.27;;;4.77;;
9328;SDS011;4703;48.748;19.142;2023-07-29T02:10:48;5.10;;;4.40;;
9328;SDS011;4703;48.748;19.142;2023-07-29T02:13:15;4.40;;;4.07;;
9328;SDS011;4703;48.748;19.142;2023-07-29T02:15:42;4.80;;;4.40;;
9328;SDS011;4703;48.748;19.142;2023-07-29T02:18:10;4.13;;;3.73;;
9328;SDS011;4703;48.748;19.142;2023-07-29T02:20:37;4.57;;;4.27;;
9328;SDS011;4703;48.748;19.142;2023-07-29T02:23:04;4.57;;;4.17;;
9328;SDS011;4703;48.748;19.142;2023-07-29T02:25:31;7.23;;;4.90;;
9328;SDS011;4703;48.748;19.142;2023-07-29T02:28:01;5.97;;;4.70;;
9328;SDS011;4703;48.748;19.142;2023-07-29T02:30:30;5.33;;;4.80;;
9328;SDS011;4703;48.748;19.142;2023-07-29T02:32:57;3.87;;;3.57;;
9328;SDS011;4703;48.748;19.142;2023-07-29T02:35:24;4.77;;;4.17;;
9328;SDS011;4703;48.748;19.142;2023-07-29T02:37:51;4.97;;;4.60;;
9328;SDS011;4703;48.748;19.142;2023-07-29T02:40:18;6.13;;;5.20;;
9328;SDS011;4703;48.748;19.142;2023-07-29T02:42:47;4.93;;;4.27;;
9328;SDS011;4703;48.748;19.142;2023-07-29T02:45:13;5.20;;;3.87;;
9328;SDS011;4703;48.748;19.142;2023-07-29T02:47:40;5.90;;;4.27;;
9328;SDS011;4703;48.748;19.142;2023-07-29T02:50:08;4.90;;;4.37;;
9328;SDS011;4703;48.748;19.142;2023-07-29T02:52:35;6.33;;;5.30;;
9328;SDS011;4703;48.748;19.142;2023-07-29T02:55:02;5.00;;;4.60;;
9328;SDS011;4703;48.748;19.142;2023-07-29T02:57:29;7.90;;;4.53;;
9328;SDS011;4703;48.748;19.142;2023-07-29T02:59:56;5.70;;;5.10;;
9328;SDS011;4703;48.748;19.142;2023-07-29T03:02:23;5.50;;;5.00;;
9328;SDS011;4703;48.748;19.142;2023-07-29T03:04:50;4.80;;;4.40;;
9328;SDS011;4703;48.748;19.142;2023-07-29T03:07:17;5.07;;;4.57;;
9328;SDS011;4703;48.748;19.142;2023-07-29T03:09:44;5.93;;;4.20;;
9328;SDS011;4703;48.748;19.142;2023-07-29T03:12:11;4.57;;;4.27;;
9328;SDS011;4703;48.748;19.142;2023-07-29T03:14:38;5.73;;;5.23;;
9328;SDS011;4703;48.748;19.142;2023-07-29T03:17:05;5.03;;;4.53;;
9328;SDS011;4703;48.748;19.142;2023-07-29T03:19:32;5.90;;;5.07;;
9328;SDS011;4703;48.748;19.142;2023-07-29T03:21:59;5.17;;;4.77;;
9328;SDS011;4703;48.748;19.142;2023-07-29T03:24:26;5.07;;;4.57;;
9328;SDS011;4703;48.748;19.142;2023-07-29T03:26:53;5.13;;;4.47;;
9328;SDS011;4703;48.748;19.142;2023-07-29T03:29:20;5.47;;;4.83;;
9328;SDS011;4703;48.748;19.142;2023-07-29T03:31:47;5.07;;;4.63;;
9328;SDS011;4703;48.748;19.142;2023-07-29T03:34:14;5.30;;;4.90;;
9328;SDS011;4703;48.748;19.142;2023-07-29T03:36:41;5.70;;;5.13;;
9328;SDS011;4703;48.748;19.142;2023-07-29T03:39:08;5.53;;;5.10;;
9328;SDS011;4703;48.748;19.142;2023-07-29T03:41:35;5.73;;;5.23;;
9328;SDS011;4703;48.748;19.142;2023-07-29T03:44:02;5.87;;;5.37;;
9328;SDS011;4703;48.748;19.142;2023-07-29T03:46:29;6.77;;;6.17;;
9328;SDS011;4703;48.748;19.142;2023-07-29T03:48:56;6.13;;;5.27;;
9328;SDS011;4703;48.748;19.142;2023-07-29T03:51:23;5.03;;;4.60;;
9328;SDS011;4703;48.748;19.142;2023-07-29T03:53:50;5.77;;;5.27;;
9328;SDS011;4703;48.748;19.142;2023-07-29T03:56:17;5.60;;;5.10;;
9328;SDS011;4703;48.748;19.142;2023-07-29T03:58:45;5.50;;;5.00;;
9328;SDS011;4703;48.748;19.142;2023-07-29T04:01:14;5.97;;;5.43;;
9328;SDS011;4703;48.748;19.142;2023-07-29T04:03:41;6.13;;;5.53;;
9328;SDS011;4703;48.748;19.142;2023-07-29T04:06:08;5.33;;;4.83;;
9328;SDS011;4703;48.748;19.142;2023-07-29T04:08:35;5.27;;;4.87;;
9328;SDS011;4703;48.748;19.142;2023-07-29T04:11:02;6.20;;;4.17;;
9328;SDS011;4703;48.748;19.142;2023-07-29T04:13:29;5.93;;;5.43;;
9328;SDS011;4703;48.748;19.142;2023-07-29T04:15:56;5.40;;;4.90;;
9328;SDS011;4703;48.748;19.142;2023-07-29T04:18:23;5.10;;;4.67;;
9328;SDS011;4703;48.748;19.142;2023-07-29T04:20:50;5.40;;;4.90;;
9328;SDS011;4703;48.748;19.142;2023-07-29T04:23:17;5.97;;;5.37;;
9328;SDS011;4703;48.748;19.142;2023-07-29T04:25:44;5.20;;;4.70;;
9328;SDS011;4703;48.748;19.142;2023-07-29T04:28:11;5.97;;;4.90;;
9328;SDS011;4703;48.748;19.142;2023-07-29T04:30:38;5.50;;;5.00;;
9328;SDS011;4703;48.748;19.142;2023-07-29T04:33:05;7.20;;;5.87;;
9328;SDS011;4703;48.748;19.142;2023-07-29T04:35:32;6.83;;;6.30;;
9328;SDS011;4703;48.748;19.142;2023-07-29T04:37:59;6.10;;;5.50;;
9328;SDS011;4703;48.748;19.142;2023-07-29T04:40:26;4.87;;;4.47;;
9328;SDS011;4703;48.748;19.142;2023-07-29T04:42:53;5.70;;;5.20;;
9328;SDS011;4703;48.748;19.142;2023-07-29T04:45:21;5.63;;;4.80;;
9328;SDS011;4703;48.748;19.142;2023-07-29T04:47:48;4.87;;;4.50;;
9328;SDS011;4703;48.748;19.142;2023-07-29T04:50:15;5.53;;;5.03;;
9328;SDS011;4703;48.748;19.142;2023-07-29T04:52:42;5.13;;;4.73;;
9328;SDS011;4703;48.748;19.142;2023-07-29T04:55:09;5.00;;;4.60;;
9328;SDS011;4703;48.748;19.142;2023-07-29T04:57:36;4.70;;;4.37;;
9328;SDS011;4703;48.748;19.142;2023-07-29T05:00:03;5.70;;;5.03;;
9328;SDS011;4703;48.748;19.142;2023-07-29T05:02:30;5.40;;;4.70;;
9328;SDS011;4703;48.748;19.142;2023-07-29T05:04:57;5.20;;;4.80;;
9328;SDS011;4703;48.748;19.142;2023-07-29T05:07:24;4.83;;;4.43;;
9328;SDS011;4703;48.748;19.142;2023-07-29T05:09:51;5.33;;;4.83;;
9328;SDS011;4703;48.748;19.142;2023-07-29T05:12:18;4.73;;;4.33;;
9328;SDS011;4703;48.748;19.142;2023-07-29T05:14:45;7.27;;;6.70;;
9328;SDS011;4703;48.748;19.142;2023-07-29T05:17:13;5.20;;;4.70;;
9328;SDS011;4703;48.748;19.142;2023-07-29T05:19:40;5.03;;;4.30;;
9328;SDS011;4703;48.748;19.142;2023-07-29T05:22:07;5.83;;;5.20;;
9328;SDS011;4703;48.748;19.142;2023-07-29T05:24:34;5.63;;;5.23;;
9328;SDS011;4703;48.748;19.142;2023-07-29T05:27:00;5.97;;;5.37;;
9328;SDS011;4703;48.748;19.142;2023-07-29T05:29:27;10.33;;;6.20;;
9328;SDS011;4703;48.748;19.142;2023-07-29T05:31:54;6.13;;;5.57;;
9328;SDS011;4703;48.748;19.142;2023-07-29T05:34:23;6.50;;;5.90;;
9328;SDS011;4703;48.748;19.142;2023-07-29T05:36:50;6.00;;;5.50;;
9328;SDS011;4703;48.748;19.142;2023-07-29T05:39:17;5.70;;;5.23;;
9328;SDS011;4703;48.748;19.142;2023-07-29T05:41:44;5.80;;;5.30;;
9328;SDS011;4703;48.748;19.142;2023-07-29T05:44:12;7.13;;;6.50;;
9328;SDS011;4703;48.748;19.142;2023-07-29T05:46:39;6.97;;;6.30;;
9328;SDS011;4703;48.748;19.142;2023-07-29T05:49:06;9.40;;;6.40;;
9328;SDS011;4703;48.748;19.142;2023-07-29T05:51:33;6.67;;;6.07;;
9328;SDS011;4703;48.748;19.142;2023-07-29T05:54:00;7.03;;;6.30;;
9328;SDS011;4703;48.748;19.142;2023-07-29T05:56:27;7.03;;;6.43;;
9328;SDS011;4703;48.748;19.142;2023-07-29T05:58:54;6.43;;;5.93;;
9328;SDS011;4703;48.748;19.142;2023-07-29T06:01:21;7.57;;;6.87;;
9328;SDS011;4703;48.748;19.142;2023-07-29T06:03:48;7.10;;;6.40;;
9328;SDS011;4703;48.748;19.142;2023-07-29T06:06:15;6.80;;;6.20;;
9328;SDS011;4703;48.748;19.142;2023-07-29T06:08:42;8.60;;;6.50;;
9328;SDS011;4703;48.748;19.142;2023-07-29T06:11:09;6.50;;;5.77;;
9328;SDS011;4703;48.748;19.142;2023-07-29T06:13:36;6.30;;;5.80;;
9328;SDS011;4703;48.748;19.142;2023-07-29T06:16:03;5.87;;;5.37;;
9328;SDS011;4703;48.748;19.142;2023-07-29T06:18:30;6.83;;;6.23;;
9328;SDS011;4703;48.748;19.142;2023-07-29T06:20:57;8.97;;;6.00;;
9328;SDS011;4703;48.748;19.142;2023-07-29T06:23:24;6.43;;;5.80;;
9328;SDS011;4703;48.748;19.142;2023-07-29T06:25:51;5.80;;;5.30;;
9328;SDS011;4703;48.748;19.142;2023-07-29T06:28:18;6.10;;;5.60;;
9328;SDS011;4703;48.748;19.142;2023-07-29T06:30:45;6.90;;;6.30;;
9328;SDS011;4703;48.748;19.142;2023-07-29T06:33:12;6.23;;;5.73;;
9328;SDS011;4703;48.748;19.142;2023-07-29T06:35:41;6.13;;;5.53;;
9328;SDS011;4703;48.748;19.142;2023-07-29T06:38:07;7.70;;;6.90;;
9328;SDS011;4703;48.748;19.142;2023-07-29T06:40:35;8.20;;;5.60;;
9328;SDS011;4703;48.748;19.142;2023-07-29T06:43:02;6.70;;;5.80;;
9328;SDS011;4703;48.748;19.142;2023-07-29T06:45:29;7.53;;;6.83;;
9328;SDS011;4703;48.748;19.142;2023-07-29T06:47:56;6.17;;;5.57;;
9328;SDS011;4703;48.748;19.142;2023-07-29T06:50:23;6.70;;;6.10;;
9328;SDS011;4703;48.748;19.142;2023-07-29T06:52:50;6.50;;;6.00;;
9328;SDS011;4703;48.748;19.142;2023-07-29T06:55:17;6.20;;;5.53;;
9328;SDS011;4703;48.748;19.142;2023-07-29T06:57:45;6.30;;;5.83;;
9328;SDS011;4703;48.748;19.142;2023-07-29T07:00:12;6.27;;;5.67;;
9328;SDS011;4703;48.748;19.142;2023-07-29T07:02:40;6.40;;;5.73;;
9328;SDS011;4703;48.748;19.142;2023-07-29T07:05:08;5.77;;;5.27;;
9328;SDS011;4703;48.748;19.142;2023-07-29T07:07:35;6.70;;;5.67;;
9328;SDS011;4703;48.748;19.142;2023-07-29T07:10:02;6.70;;;6.10;;
9328;SDS011;4703;48.748;19.142;2023-07-29T07:12:29;12.57;;;11.27;;
9328;SDS011;4703;48.748;19.142;2023-07-29T07:14:56;7.50;;;6.80;;
9328;SDS011;4703;48.748;19.142;2023-07-29T07:17:23;6.67;;;5.93;;
9328;SDS011;4703;48.748;19.142;2023-07-29T07:19:50;5.43;;;5.03;;
9328;SDS011;4703;48.748;19.142;2023-07-29T07:22:17;5.67;;;5.20;;
9328;SDS011;4703;48.748;19.142;2023-07-29T07:24:44;5.97;;;5.47;;
9328;SDS011;4703;48.748;19.142;2023-07-29T07:27:11;5.63;;;5.13;;
9328;SDS011;4703;48.748;19.142;2023-07-29T07:29:38;5.30;;;4.90;;
9328;SDS011;4703;48.748;19.142;2023-07-29T07:32:05;5.67;;;5.17;;
9328;SDS011;4703;48.748;19.142;2023-07-29T07:34:32;5.70;;;4.70;;
9328;SDS011;4703;48.748;19.142;2023-07-29T07:37:00;5.67;;;5.17;;
9328;SDS011;4703;48.748;19.142;2023-07-29T07:39:27;6.07;;;5.50;;
9328;SDS011;4703;48.748;19.142;2023-07-29T07:41:54;7.73;;;6.97;;
9328;SDS011;4703;48.748;19.142;2023-07-29T07:44:21;11.23;;;8.53;;
9328;SDS011;4703;48.748;19.142;2023-07-29T07:46:48;7.10;;;5.80;;
9328;SDS011;4703;48.748;19.142;2023-07-29T07:49:15;6.10;;;5.60;;
9328;SDS011;4703;48.748;19.142;2023-07-29T07:51:43;5.57;;;5.13;;
9328;SDS011;4703;48.748;19.142;2023-07-29T07:54:10;5.80;;;4.80;;
9328;SDS011;4703;48.748;19.142;2023-07-29T07:56:37;6.03;;;5.43;;
9328;SDS011;4703;48.748;19.142;2023-07-29T07:59:05;5.50;;;5.10;;
9328;SDS011;4703;48.748;19.142;2023-07-29T08:01:35;5.20;;;4.80;;
9328;SDS011;4703;48.748;19.142;2023-07-29T08:04:04;6.10;;;5.70;;
9328;SDS011;4703;48.748;19.142;2023-07-29T08:06:31;5.93;;;5.43;;
9328;SDS011;4703;48.748;19.142;2023-07-29T08:08:59;6.00;;;5.50;;
9328;SDS011;4703;48.748;19.142;2023-07-29T08:11:26;5.90;;;5.40;;
9328;SDS011;4703;48.748;19.142;2023-07-29T08:13:53;6.00;;;5.27;;
9328;SDS011;4703;48.748;19.142;2023-07-29T08:16:20;6.33;;;5.73;;
9328;SDS011;4703;48.748;19.142;2023-07-29T08:18:47;6.13;;;5.13;;
9328;SDS011;4703;48.748;19.142;2023-07-29T08:21:14;5.63;;;5.10;;
9328;SDS011;4703;48.748;19.142;2023-07-29T08:23:41;5.17;;;4.77;;
9328;SDS011;4703;48.748;19.142;2023-07-29T08:26:08;5.90;;;5.40;;
9328;SDS011;4703;48.748;19.142;2023-07-29T08:28:36;4.83;;;4.47;;
9328;SDS011;4703;48.748;19.142;2023-07-29T08:31:07;5.60;;;5.10;;
9328;SDS011;4703;48.748;19.142;2023-07-29T08:33:34;5.03;;;4.70;;
9328;SDS011;4703;48.748;19.142;2023-07-29T08:36:01;4.90;;;4.50;;
9328;SDS011;4703;48.748;19.142;2023-07-29T08:38:29;5.40;;;4.90;;
9328;SDS011;4703;48.748;19.142;2023-07-29T08:41:04;5.40;;;4.90;;
9328;SDS011;4703;48.748;19.142;2023-07-29T08:46:50;5.60;;;5.00;;
9328;SDS011;4703;48.748;19.142;2023-07-29T08:49:18;5.27;;;4.87;;
9328;SDS011;4703;48.748;19.142;2023-07-29T08:51:46;5.67;;;5.10;;
9328;SDS011;4703;48.748;19.142;2023-07-29T08:54:14;4.60;;;4.30;;
9328;SDS011;4703;48.748;19.142;2023-07-29T08:56:42;5.97;;;5.47;;
9328;SDS011;4703;48.748;19.142;2023-07-29T08:59:10;6.03;;;5.43;;
9328;SDS011;4703;48.748;19.142;2023-07-29T09:01:38;5.30;;;4.90;;
9328;SDS011;4703;48.748;19.142;2023-07-29T09:04:05;5.17;;;4.67;;
9328;SDS011;4703;48.748;19.142;2023-07-29T09:06:32;5.30;;;4.90;;
9328;SDS011;4703;48.748;19.142;2023-07-29T09:09:02;5.87;;;5.37;;
9328;SDS011;4703;48.748;19.142;2023-07-29T09:11:29;5.97;;;5.50;;
9328;SDS011;4703;48.748;19.142;2023-07-29T09:13:56;5.90;;;5.40;;
9328;SDS011;4703;48.748;19.142;2023-07-29T09:16:23;8.20;;;7.53;;
9328;SDS011;4703;48.748;19.142;2023-07-29T09:18:51;9.27;;;8.57;;
9328;SDS011;4703;48.748;19.142;2023-07-29T09:21:24;6.97;;;6.37;;
9328;SDS011;4703;48.748;19.142;2023-07-29T09:23:53;7.23;;;6.70;;
9328;SDS011;4703;48.748;19.142;2023-07-29T09:26:27;6.40;;;5.90;;
9328;SDS011;4703;48.748;19.142;2023-07-29T09:28:55;6.03;;;5.53;;
9328;SDS011;4703;48.748;19.142;2023-07-29T09:31:27;5.97;;;5.33;;
9328;SDS011;4703;48.748;19.142;2023-07-29T09:33:56;6.07;;;5.40;;
9328;SDS011;4703;48.748;19.142;2023-07-29T09:36:25;5.87;;;5.40;;
9328;SDS011;4703;48.748;19.142;2023-07-29T09:38:53;5.20;;;4.80;;
9328;SDS011;4703;48.748;19.142;2023-07-29T09:41:22;5.20;;;4.70;;
9328;SDS011;4703;48.748;19.142;2023-07-29T09:43:57;4.47;;;4.17;;
9328;SDS011;4703;48.748;19.142;2023-07-29T09:46:34;5.27;;;4.97;;
9328;SDS011;4703;48.748;19.142;2023-07-29T09:49:04;4.73;;;4.23;;
9328;SDS011;4703;48.748;19.142;2023-07-29T09:51:37;5.20;;;4.80;;
9328;SDS011;4703;48.748;19.142;2023-07-29T09:54:07;4.90;;;4.50;;
9328;SDS011;4703;48.748;19.142;2023-07-29T09:56:41;5.20;;;4.80;;
9328;SDS011;4703;48.748;19.142;2023-07-29T09:59:10;4.97;;;4.57;;
9328;SDS011;4703;48.748;19.142;2023-07-29T10:01:39;5.27;;;4.77;;
9328;SDS011;4703;48.748;19.142;2023-07-29T10:04:06;5.10;;;4.70;;
9328;SDS011;4703;48.748;19.142;2023-07-29T10:06:38;5.60;;;5.03;;
9328;SDS011;4703;48.748;19.142;2023-07-29T10:09:06;6.13;;;5.63;;
9328;SDS011;4703;48.748;19.142;2023-07-29T10:11:34;5.10;;;4.70;;
9328;SDS011;4703;48.748;19.142;2023-07-29T10:14:02;6.03;;;5.53;;
9328;SDS011;4703;48.748;19.142;2023-07-29T10:16:34;5.90;;;5.50;;
9328;SDS011;4703;48.748;19.142;2023-07-29T10:19:04;6.03;;;5.53;;
9328;SDS011;4703;48.748;19.142;2023-07-29T10:21:31;5.70;;;5.20;;
9328;SDS011;4703;48.748;19.142;2023-07-29T10:23:59;5.33;;;4.90;;
9328;SDS011;4703;48.748;19.142;2023-07-29T10:26:29;5.30;;;4.90;;
9328;SDS011;4703;48.748;19.142;2023-07-29T10:28:59;5.23;;;4.90;;
9328;SDS011;4703;48.748;19.142;2023-07-29T10:31:31;5.40;;;4.90;;
9328;SDS011;4703;48.748;19.142;2023-07-29T10:33:59;4.77;;;4.37;;
9328;SDS011;4703;48.748;19.142;2023-07-29T10:36:27;5.27;;;4.87;;
9328;SDS011;4703;48.748;19.142;2023-07-29T10:38:55;4.70;;;4.30;;
9328;SDS011;4703;48.748;19.142;2023-07-29T10:41:22;3.90;;;3.50;;
9328;SDS011;4703;48.748;19.142;2023-07-29T10:43:49;3.60;;;3.40;;
9328;SDS011;4703;48.748;19.142;2023-07-29T10:46:20;4.03;;;3.73;;
9328;SDS011;4703;48.748;19.142;2023-07-29T10:48:52;3.47;;;3.20;;
9328;SDS011;4703;48.748;19.142;2023-07-29T10:51:35;2.87;;;2.67;;
9328;SDS011;4703;48.748;19.142;2023-07-29T10:54:10;3.77;;;3.47;;
9328;SDS011;4703;48.748;19.142;2023-07-29T10:56:41;3.03;;;2.83;;
9328;SDS011;4703;48.748;19.142;2023-07-29T11:01:51;3.43;;;3.23;;
9328;SDS011;4703;48.748;19.142;2023-07-29T11:04:29;2.60;;;2.50;;
9328;SDS011;4703;48.748;19.142;2023-07-29T11:15:27;2.60;;;2.40;;
9328;SDS011;4703;48.748;19.142;2023-07-29T11:17:57;2.00;;;1.90;;
9328;SDS011;4703;48.748;19.142;2023-07-29T11:20:27;2.37;;;2.27;;
9328;SDS011;4703;48.748;19.142;2023-07-29T11:22:58;2.20;;;2.10;;
9328;SDS011;4703;48.748;19.142;2023-07-29T11:25:28;2.00;;;1.90;;
9328;SDS011;4703;48.748;19.142;2023-07-29T11:27:57;2.90;;;2.80;;
9328;SDS011;4703;48.748;19.142;2023-07-29T11:30:29;3.00;;;2.80;;
9328;SDS011;4703;48.748;19.142;2023-07-29T11:32:57;3.33;;;2.90;;
9328;SDS011;4703;48.748;19.142;2023-07-29T11:35:25;3.40;;;3.20;;
9328;SDS011;4703;48.748;19.142;2023-07-29T11:37:53;4.07;;;3.77;;
9328;SDS011;4703;48.748;19.142;2023-07-29T11:40:23;3.50;;;3.20;;
9328;SDS011;4703;48.748;19.142;2023-07-29T11:42:51;3.30;;;3.10;;
9328;SDS011;4703;48.748;19.142;2023-07-29T11:45:20;3.23;;;3.03;;
9328;SDS011;4703;48.748;19.142;2023-07-29T11:47:57;3.10;;;2.90;;
9328;SDS011;4703;48.748;19.142;2023-07-29T11:50:25;5.00;;;4.60;;
9328;SDS011;4703;48.748;19.142;2023-07-29T11:52:52;4.67;;;4.37;;
9328;SDS011;4703;48.748;19.142;2023-07-29T11:55:20;3.53;;;3.30;;
9328;SDS011;4703;48.748;19.142;2023-07-29T11:57:49;3.23;;;3.03;;
9328;SDS011;4703;48.748;19.142;2023-07-29T12:00:18;3.37;;;3.17;;
9328;SDS011;4703;48.748;19.142;2023-07-29T12:02:47;3.90;;;3.60;;
9328;SDS011;4703;48.748;19.142;2023-07-29T12:05:15;12.60;;;10.37;;
9328;SDS011;4703;48.748;19.142;2023-07-29T12:07:45;18.47;;;15.77;;
9328;SDS011;4703;48.748;19.142;2023-07-29T12:10:12;7.77;;;6.97;;
9328;SDS011;4703;48.748;19.142;2023-07-29T12:12:46;4.57;;;4.17;;
9328;SDS011;4703;48.748;19.142;2023-07-29T12:15:24;4.30;;;3.90;;
9328;SDS011;4703;48.748;19.142;2023-07-29T12:17:53;3.90;;;3.60;;
9328;SDS011;4703;48.748;19.142;2023-07-29T12:20:26;3.50;;;3.30;;
9328;SDS011;4703;48.748;19.142;2023-07-29T12:22:56;3.73;;;3.43;;
9328;SDS011;4703;48.748;19.142;2023-07-29T12:25:28;3.60;;;3.40;;
9328;SDS011;4703;48.748;19.142;2023-07-29T12:27:55;4.27;;;3.70;;
9328;SDS011;4703;48.748;19.142;2023-07-29T12:30:23;3.77;;;3.47;;
9328;SDS011;4703;48.748;19.142;2023-07-29T12:32:51;4.10;;;3.80;;
9328;SDS011;4703;48.748;19.142;2023-07-29T12:35:18;3.17;;;3.00;;
9328;SDS011;4703;48.748;19.142;2023-07-29T12:37:45;3.90;;;3.53;;
9328;SDS011;4703;48.748;19.142;2023-07-29T12:42:50;3.67;;;3.47;;
9328;SDS011;4703;48.748;19.142;2023-07-29T12:45:18;3.60;;;3.30;;
9328;SDS011;4703;48.748;19.142;2023-07-29T12:47:45;3.43;;;3.23;;
9328;SDS011;4703;48.748;19.142;2023-07-29T12:50:12;3.70;;;3.40;;
9328;SDS011;4703;48.748;19.142;2023-07-29T12:52:39;3.47;;;3.17;;
9328;SDS011;4703;48.748;19.142;2023-07-29T12:55:06;3.47;;;2.77;;
9328;SDS011;4703;48.748;19.142;2023-07-29T12:57:41;3.40;;;3.20;;
9328;SDS011;4703;48.748;19.142;2023-07-29T13:00:09;3.37;;;3.07;;
9328;SDS011;4703;48.748;19.142;2023-07-29T13:02:37;3.37;;;3.07;;
9328;SDS011;4703;48.748;19.142;2023-07-29T13:05:05;3.03;;;2.83;;
9328;SDS011;4703;48.748;19.142;2023-07-29T13:07:35;3.20;;;3.00;;
9328;SDS011;4703;48.748;19.142;2023-07-29T13:10:02;2.87;;;2.77;;
9328;SDS011;4703;48.748;19.142;2023-07-29T13:12:29;2.77;;;2.57;;
9328;SDS011;4703;48.748;19.142;2023-07-29T13:14:56;3.83;;;3.10;;
9328;SDS011;4703;48.748;19.142;2023-07-29T13:17:23;3.40;;;3.10;;
9328;SDS011;4703;48.748;19.142;2023-07-29T13:19:51;4.20;;;3.90;;
9328;SDS011;4703;48.748;19.142;2023-07-29T13:22:19;3.23;;;3.00;;
9328;SDS011;4703;48.748;19.142;2023-07-29T13:24:46;3.07;;;2.87;;
9328;SDS011;4703;48.748;19.142;2023-07-29T13:27:13;5.30;;;2.60;;
9328;SDS011;4703;48.748;19.142;2023-07-29T13:29:40;4.23;;;2.90;;
9328;SDS011;4703;48.748;19.142;2023-07-29T13:32:07;3.97;;;3.10;;
9328;SDS011;4703;48.748;19.142;2023-07-29T13:34:34;2.57;;;2.37;;
9328;SDS011;4703;48.748;19.142;2023-07-29T13:37:01;2.43;;;2.23;;
9328;SDS011;4703;48.748;19.142;2023-07-29T13:39:29;2.90;;;2.63;;
9328;SDS011;4703;48.748;19.142;2023-07-29T13:41:56;2.67;;;2.47;;
9328;SDS011;4703;48.748;19.142;2023-07-29T13:44:23;3.10;;;2.80;;
9328;SDS011;4703;48.748;19.142;2023-07-29T13:46:50;3.90;;;2.87;;
9328;SDS011;4703;48.748;19.142;2023-07-29T13:49:17;3.13;;;2.83;;
9328;SDS011;4703;48.748;19.142;2023-07-29T13:51:44;3.60;;;3.27;;
9328;SDS011;4703;48.748;19.142;2023-07-29T13:54:11;3.67;;;3.10;;
9328;SDS011;4703;48.748;19.142;2023-07-29T13:56:38;3.40;;;3.10;;
9328;SDS011;4703;48.748;19.142;2023-07-29T13:59:05;2.80;;;2.60;;
9328;SDS011;4703;48.748;19.142;2023-07-29T14:01:32;2.93;;;2.73;;
9328;SDS011;4703;48.748;19.142;2023-07-29T14:03:59;3.70;;;3.40;;
9328;SDS011;4703;48.748;19.142;2023-07-29T14:06:26;3.43;;;3.23;;
9328;SDS011;4703;48.748;19.142;2023-07-29T14:09:10;4.17;;;3.47;;
9328;SDS011;4703;48.748;19.142;2023-07-29T14:11:37;2.73;;;2.60;;
9328;SDS011;4703;48.748;19.142;2023-07-29T14:14:06;3.60;;;3.30;;
9328;SDS011;4703;48.748;19.142;2023-07-29T14:16:34;4.00;;;3.50;;
9328;SDS011;4703;48.748;19.142;2023-07-29T14:19:01;3.50;;;3.20;;
9328;SDS011;4703;48.748;19.142;2023-07-29T14:21:28;3.20;;;3.00;;
9328;SDS011;4703;48.748;19.142;2023-07-29T14:23:55;3.17;;;2.93;;
9328;SDS011;4703;48.748;19.142;2023-07-29T14:26:22;3.37;;;3.07;;
9328;SDS011;4703;48.748;19.142;2023-07-29T14:28:50;3.30;;;3.10;;
9328;SDS011;4703;48.748;19.142;2023-07-29T14:31:17;3.03;;;2.83;;
9328;SDS011;4703;48.748;19.142;2023-07-29T14:33:44;3.30;;;3.07;;
9328;SDS011;4703;48.748;19.142;2023-07-29T14:36:11;3.93;;;3.63;;
9328;SDS011;4703;48.748;19.142;2023-07-29T14:38:38;4.10;;;3.80;;
9328;SDS011;4703;48.748;19.142;2023-07-29T14:41:05;3.37;;;3.07;;
9328;SDS011;4703;48.748;19.142;2023-07-29T14:43:32;3.03;;;2.73;;
9328;SDS011;4703;48.748;19.142;2023-07-29T14:46:00;3.40;;;3.10;;
9328;SDS011;4703;48.748;19.142;2023-07-29T14:48:28;3.07;;;2.77;;
9328;SDS011;4703;48.748;19.142;2023-07-29T14:50:55;3.07;;;2.87;;
9328;SDS011;4703;48.748;19.142;2023-07-29T14:53:22;3.07;;;2.80;;
9328;SDS011;4703;48.748;19.142;2023-07-29T14:55:50;2.50;;;2.40;;
9328;SDS011;4703;48.748;19.142;2023-07-29T14:58:17;2.70;;;2.60;;
9328;SDS011;4703;48.748;19.142;2023-07-29T15:00:44;3.00;;;2.30;;
9328;SDS011;4703;48.748;19.142;2023-07-29T15:03:11;2.73;;;2.60;;
9328;SDS011;4703;48.748;19.142;2023-07-29T15:05:39;3.37;;;3.17;;
9328;SDS011;4703;48.748;19.142;2023-07-29T15:08:06;2.70;;;2.50;;
9328;SDS011;4703;48.748;19.142;2023-07-29T15:10:33;2.93;;;2.63;;
9328;SDS011;4703;48.748;19.142;2023-07-29T15:13:01;4.70;;;4.40;;
9328;SDS011;4703;48.748;19.142;2023-07-29T15:15:28;3.67;;;3.47;;
9328;SDS011;4703;48.748;19.142;2023-07-29T15:17:56;3.50;;;3.30;;
9328;SDS011;4703;48.748;19.142;2023-07-29T15:20:23;6.47;;;5.57;;
9328;SDS011;4703;48.748;19.142;2023-07-29T15:22:50;3.50;;;3.20;;
9328;SDS011;4703;48.748;19.142;2023-07-29T15:25:17;2.93;;;2.73;;
9328;SDS011;4703;48.748;19.142;2023-07-29T15:27:44;3.37;;;2.70;;
9328;SDS011;4703;48.748;19.142;2023-07-29T15:30:11;3.03;;;2.90;;